Flight Track Log - Related Links

Times and Time Zones

All times are in EDT time to prevent confusion due to time zone crossing. See the N569SC flight status page for this flight to view local times or setup timezone preferences in your user account.

Time Position Orientation Groundspeed Altitude Reporting Facility
EDT Latitude Longitude Course Direction KTS MPH feet Rate Location/Type
Sat 10:28:51 AM 41.7544 -87.8239 266° West 233 268 3,000  Level Chicago Center
Sat 10:29:53 AM 41.7336 -87.9106 252° West 242 278 3,900 435 Climbing Chicago Center
Sat 10:30:55 AM 41.7319 -88.0233 269° West 252 290 3,900 532 Level Chicago Center
Sat 10:31:57 AM 41.7289 -88.1136 267° West 251 289 5,000 968 Climbing Chicago Center
Sat 10:32:59 AM 41.7336 -88.2072 274° West 256 295 5,900 919 Climbing Chicago Center
Sat 10:34:00 AM 41.7323 -88.5868 266° West  Level FlightAware Approximate
Sat 10:34:01 AM 41.7592 -88.2964 291° West 258 297 6,900  Level Chicago Center
Sat 10:35:02 AM 41.7850 -88.3897 290° West 268 308 9,500 2,732 Climbing Chicago Center
Sat 10:36:04 AM 41.7894 -88.5108 273° West 282 325 12,500 2,352 Climbing Chicago Center
Sat 10:37:07 AM 41.7867 -88.6194 268° West 291 335 14,400 1,935 Climbing Chicago Center
Sat 10:38:08 AM 41.7817 -88.7369 267° West 314 361 16,500 1,756 Climbing Chicago Center
Sat 10:39:10 AM 41.7758 -88.8608 266° West 333 383 18,000 1,113 Climbing Chicago Center
Sat 10:40:12 AM 41.7694 -88.9886 266° West 344 396 18,800 484 Climbing Chicago Center
Sat 10:41:14 AM 41.7644 -89.1403 268° West 343 395 19,000 98 Climbing Chicago Center
Sat 10:42:15 AM 41.7628 -89.2628 269° West 340 391 19,000 537 Level Chicago Center
Sat 10:43:17 AM 41.7619 -89.3808 269° West 330 380 20,100 1,258 Climbing Chicago Center
Sat 10:44:19 AM 41.7486 -89.5025 262° West 329 379 21,600 1,500 Climbing Chicago Center
Sat 10:45:21 AM 41.7286 -89.6294 258° West 341 392 23,200 1,839 Climbing Chicago Center
Sat 10:46:23 AM 41.7300 -89.7625 271° West 357 411 25,400 2,274 Climbing Chicago Center
Sat 10:47:25 AM 41.7292 -89.9208 270° West 357 411 27,900 2,081 Climbing Chicago Center
Sat 10:48:27 AM 41.7292 -90.0561 270° West 364 419 29,700 1,659 Climbing Chicago Center
Sat 10:49:28 AM 41.7286 -90.1975 270° West 377 434 31,300 1,561 Climbing Chicago Center
Sat 10:50:30 AM 41.7253 -90.3447 268° West 393 452 32,900 1,403 Climbing Chicago Center
Sat 10:51:32 AM 41.7244 -90.4908 270° West 395 455 34,200 1,258 Climbing Chicago Center
Sat 10:52:34 AM 41.7225 -90.6722 269° West 415 478 35,500 1,161 Climbing Chicago Center
Sat 10:53:36 AM 41.7197 -90.8322 269° West 427 491 36,600 1,065 Climbing Chicago Center
Sat 10:54:38 AM 41.7050 -90.9931 263° West 435 501 37,700 1,122 Climbing Chicago Center
Sat 10:55:39 AM 41.6911 -91.1544 263° West 438 504 38,900 1,220 Climbing Chicago Center
Sat 10:56:41 AM 41.6764 -91.3128 263° West 434 499 40,200 1,210 Climbing Chicago Center
Sat 10:57:43 AM 41.6636 -91.4686 264° West 426 490 41,400 1,113 Climbing Chicago Center
Sat 10:58:45 AM 41.6464 -91.6553 263° West 425 489 42,500 871 Climbing Chicago Center
Sat 10:59:47 AM 41.6319 -91.8117 263° West 426 490 43,200 714 Climbing Chicago Center
Sat 11:00:51 AM 41.6172 -91.9692 263° West 429 494 44,000 810 Climbing Chicago Center
Sat 11:01:53 AM 41.6031 -92.1239 263° West 426 490 44,900 488 Climbing Chicago Center
Sat 11:02:54 AM 41.5886 -92.2775 263° West 420 483 45,000 49 Climbing Chicago Center
Sat 11:03:56 AM 41.5706 -92.4572 262° West 412 474 45,000  Level Chicago Center
Sat 11:04:58 AM 41.5558 -92.6053 262° West 407 468 45,000  Level Chicago Center
Sat 11:06:03 AM 41.5414 -92.7519 263° West 409 471 45,000  Level Minneapolis Center
Sat 11:07:05 AM 41.5242 -92.9214 262° West 395 455 45,000  Level Minneapolis Center
Sat 11:08:07 AM 41.5089 -93.0600 262° West 386 444 45,000  Level Minneapolis Center
Sat 11:09:08 AM 41.4956 -93.1939 262° West 375 432 45,000  Level Minneapolis Center
Sat 11:10:10 AM 41.4806 -93.3275 262° West 371 427 45,000  Level Minneapolis Center
Sat 11:11:23 AM 41.4672 -93.4606 262° West 368 423 45,000  Level Minneapolis Center
Sat 11:12:25 AM 41.4508 -93.6147 262° West 362 417 45,000  Level Minneapolis Center
Sat 11:13:27 AM 41.4347 -93.7719 262° West 360 414 45,000  Level Minneapolis Center
Sat 11:14:29 AM 41.4192 -93.9036 261° West 363 418 45,000  Level Minneapolis Center
Sat 11:15:30 AM 41.4050 -94.0350 262° West 364 419 45,000  Level Minneapolis Center
Sat 11:16:32 AM 41.3900 -94.1692 262° West 367 422 45,000  Level Minneapolis Center
Sat 11:17:34 AM 41.3739 -94.3119 261° West 369 425 45,000  Level Minneapolis Center
Sat 11:18:35 AM 41.3572 -94.4492 261° West 374 430 45,000  Level Minneapolis Center
Sat 11:19:37 AM 41.3453 -94.5592 262° West 375 432 45,000  Level Minneapolis Center
Sat 11:20:39 AM 41.3256 -94.7275 261° West 381 438 45,000  Level Minneapolis Center
Sat 11:21:40 AM 41.3081 -94.8706 261° West 388 447 45,000  Level Minneapolis Center
Sat 11:22:54 AM 41.2864 -95.0417 260° West 391 450 45,000  Level Minneapolis Center
Sat 11:23:56 AM 41.2656 -95.2128 261° West 390 449 45,000  Level Minneapolis Center
Sat 11:24:57 AM 41.2467 -95.3558 260° West 391 450 45,000  Level Minneapolis Center
Sat 11:25:59 AM 41.2269 -95.4989 260° West 392 451 45,000  Level Minneapolis Center
Sat 11:27:01 AM 41.2092 -95.6586 262° West 394 453 45,000 49 Level Minneapolis Center
Sat 11:28:02 AM 41.1908 -95.8006 260° West 390 449 45,100  Climbing Minneapolis Center
Sat 11:29:04 AM 41.1711 -95.9431 260° West 391 450 45,000 -48 Descending Minneapolis Center
Sat 11:30:06 AM 41.1533 -96.0853 261° West 392 451 45,000  Level Minneapolis Center
Sat 11:31:07 AM 41.1333 -96.2286 260° West 394 453 45,000  Level Minneapolis Center
Sat 11:32:09 AM 41.1147 -96.3686 260° West 402 463 45,000  Level Minneapolis Center
Sat 11:33:11 AM 41.0922 -96.5408 260° West 397 457 45,000  Level Minneapolis Center
Sat 11:34:12 AM 41.0717 -96.6878 260° West 402 463 45,000  Level Minneapolis Center
Sat 11:35:14 AM 41.0511 -96.8344 260° West 405 466 45,000  Level Minneapolis Center
Sat 11:36:16 AM 41.0311 -96.9817 260° West 405 466 45,000  Level Minneapolis Center
Sat 11:37:17 AM 41.0106 -97.1264 259° West 403 464 45,000  Level Minneapolis Center
Sat 11:38:19 AM 40.9903 -97.2706 259° West 400 460 45,000  Level Minneapolis Center
Sat 11:39:21 AM 40.9689 -97.4183 259° West 393 452 45,000  Level Minneapolis Center
Sat 11:40:23 AM 40.9483 -97.5589 259° West 390 449 45,000  Level Minneapolis Center
Sat 11:41:24 AM 40.9278 -97.6986 259° West 388 447 45,000  Level Minneapolis Center
Sat 11:42:26 AM 40.9033 -97.8656 259° West 387 445 45,000  Level Minneapolis Center
Sat 11:43:28 AM 40.8828 -98.0053 259° West 386 444 45,000  Level Minneapolis Center
Sat 11:44:30 AM 40.8622 -98.1469 259° West 390 449 45,000  Level Minneapolis Center
Sat 11:45:31 AM 40.8394 -98.2878 258° West 390 449 45,000  Level Minneapolis Center
Sat 11:46:33 AM 40.8200 -98.4203 259° West 393 452 45,000  Level Minneapolis Center
Sat 11:47:35 AM 40.7978 -98.5617 258° West 393 452 45,000  Level Minneapolis Center
Sat 11:48:37 AM 40.7711 -98.7308 258° West 394 453 45,000  Level Minneapolis Center
Sat 11:49:39 AM 40.7500 -98.8719 259° West 393 452 45,000  Level Minneapolis Center
Sat 11:50:52 AM 40.7303 -98.9997 259° West 392 451 45,000  Level Minneapolis Center
Sat 11:51:55 AM 40.7036 -99.1706 258° West 393 452 45,000  Level Minneapolis Center
Sat 11:52:56 AM 40.6800 -99.3131 258° West 395 455 45,000  Level Minneapolis Center
Sat 11:53:58 AM 40.6533 -99.4825 258° West 394 453 45,000  Level Minneapolis Center
Sat 11:55:00 AM 40.6306 -99.6236 258° West 394 453 45,000  Level Minneapolis Center
Sat 11:56:02 AM 40.6083 -99.7653 258° West 394 453 45,000  Level Minneapolis Center
Sat 11:57:03 AM 40.5847 -99.9075 258° West 396 456 45,000  Level Minneapolis Center
Sat 11:58:05 AM 40.5606 -100.0478 257° West 394 453 45,000  Level Minneapolis Center
Sat 11:59:07 AM 40.5367 -100.1911 258° West 397 457 45,000  Level Minneapolis Center
Sat 12:00:10 PM 40.5081 -100.3625 258° West 400 460 45,000  Level Minneapolis Center
Sat 12:01:11 PM 40.4844 -100.5028 258° West 398 458 45,000 -41 Level Minneapolis Center
Sat 12:02:35 PM 40.4475 -100.6928 256° West 392 451 44,900 -288 Descending Denver Center
Sat 12:03:37 PM 40.4253 -100.8247 258° West 387 445 44,300 -532 Descending Denver Center
Sat 12:04:39 PM 40.4067 -100.9331 257° West 382 440 43,800 -581 Descending Denver Center
Sat 12:05:41 PM 40.3756 -101.1047 257° West 377 434 43,100 -387 Descending Denver Center
Sat 12:06:43 PM 40.3489 -101.2544 257° West 376 433 43,000 -48 Descending Denver Center
Sat 12:07:45 PM 40.3269 -101.3831 257° West 378 435 43,000  Level Denver Center
Sat 12:08:48 PM 40.3033 -101.5128 257° West 381 438 43,000  Level Denver Center
Sat 12:09:50 PM 40.2756 -101.6603 256° West 374 430 43,000  Level Denver Center
Sat 12:11:04 PM 40.2444 -101.8317 257° West 378 435 43,000  Level Denver Center
Sat 12:12:06 PM 40.2206 -101.9594 256° West 378 435 43,000  Level Denver Center
Sat 12:13:08 PM 40.1919 -102.1072 256° West 376 433 43,000  Level Denver Center
Sat 12:14:10 PM 40.1694 -102.2342 257° West 376 433 43,000  Level Denver Center
Sat 12:15:12 PM 40.1414 -102.3833 256° West 378 435 43,000  Level Denver Center
Sat 12:16:14 PM 40.1161 -102.5097 255° West 376 433 43,000  Level Denver Center
Sat 12:17:16 PM 40.0922 -102.6383 256° West 380 437 43,000  Level Denver Center
Sat 12:18:18 PM 40.0625 -102.7856 255° West 377 434 43,000  Level Denver Center
Sat 12:19:21 PM 40.0367 -102.9200 256° West 381 438 43,000  Level Denver Center
Sat 12:20:23 PM 40.0106 -103.0522 256° West 378 435 43,000  Level Denver Center
Sat 12:21:25 PM 39.9847 -103.1872 256° West 383 441 43,000  Level Denver Center
Sat 12:22:27 PM 39.9525 -103.3469 255° West 382 440 43,000  Level Denver Center
Sat 12:23:29 PM 39.9261 -103.4797 256° West 381 438 43,000  Level Denver Center
Sat 12:24:31 PM 39.8989 -103.6103 255° West 375 432 43,000  Level Denver Center
Sat 12:25:33 PM 39.8714 -103.7450 255° West 384 442 43,000  Level Denver Center
Sat 12:26:35 PM 39.8456 -103.8783 256° West 378 435 43,000  Level Denver Center
Sat 12:27:37 PM 39.8175 -104.0103 255° West 380 437 43,000  Level Denver Center
Sat 12:28:39 PM 39.7861 -104.1656 255° West 370 426 43,000  Level Denver Center
Sat 12:29:41 PM 39.7586 -104.2947 255° West 370 426 43,000  Level Denver Center
Sat 12:30:43 PM 39.7319 -104.4231 255° West 367 422 43,000 -97 Level Denver Center
Sat 12:31:45 PM 39.7031 -104.5556 254° West 384 442 42,800 -532 Descending Denver Center
Sat 12:32:47 PM 39.6842 -104.6872 259° West 381 438 41,900 -968 Descending Denver Center
Sat 12:33:49 PM 39.6675 -104.8542 263° West 418 481 40,800 -968 Descending Denver Center
Sat 12:34:51 PM 39.6522 -104.9944 262° West 393 452 39,900 -1,161 Descending Denver Center
Sat 12:35:53 PM 39.6369 -105.1322 262° West 389 448 38,400 -1,584 Descending Denver Center
Sat 12:36:56 PM 39.6217 -105.2753 262° West 398 458 36,600 -1,824 Descending Denver Center
Sat 12:37:58 PM 39.6031 -105.4461 262° West 401 461 34,600 -1,676 Descending Denver Center
Sat 12:39:12 PM 39.5878 -105.5864 262° West 395 455 32,800 -1,721 Descending Denver Center
Sat 12:40:14 PM 39.5686 -105.7544 262° West 394 453 30,700 -1,839 Descending Denver Center
Sat 12:41:16 PM 39.5564 -105.8903 263° West 382 440 29,000 -1,694 Descending Denver Center
Sat 12:42:18 PM 39.5403 -106.0275 261° West 387 445 27,200 -1,887 Descending Denver Center
Sat 12:43:20 PM 39.5231 -106.1781 262° West 383 441 25,100 -1,984 Descending Denver Center
Sat 12:44:22 PM 39.5078 -106.3131 262° West 380 437 23,100 -1,935 Descending Denver Center
Sat 12:45:24 PM 39.4922 -106.4475 262° West 376 433 21,100 -2,226 Descending Denver Center
Sat 12:46:26 PM 39.4747 -106.5939 261° West 362 417 18,500 -2,208 Descending Denver Center
Sat 12:47:29 PM 39.4611 -106.7069 261° West 337 388 16,500 -1,790 Descending Denver Center
Sat 12:48:30 PM 39.4511 -106.7906 261° West 302 348 14,800 -1,355 Descending Denver Center
Sat 12:49:33 PM 39.4217 -106.8892 249° West 245 282 13,700 -1,344 Descending Denver Center
Sat 12:50:35 PM 39.3714 -106.8992 189° South 185 213 12,000 -1,258 Descending Denver Center
Sat 12:51:37 PM 39.3306 -106.8967 177° South 162 186 11,100 -1,452 Descending Denver Center
Sat 12:52:39 PM 39.2906 -106.8936 177° South 150 173 9,000 -1,113 Descending Denver Center
Sat 12:53:41 PM 39.2500 -106.8900 176° South 149 171 8,800 -194 Descending Denver Center
Sat 12:54:00 PM 39.2167 -106.8667 176° South  Level FlightAware Approximate

Login

Don't have an account? Register now (free) for customized features, flight alerts, and more!